KHMN/HMN METAR and TAF weather

Enter ICAO airport designator
Station Type Date Time Source
KHMN METAR 2021/04/14 18:58 UTC NOAA

KHMN 141858Z AUTO 14013G20KT 10SM CLR 24/00 A3000 RMK AO2 SLP101 T02360000 $


Station Type Date Time Source
KHMN Decoded METAR 2021/04/14 18:58 UTC NOAA

Holloman Air Force Base, NM, United States (KHMN) 32-51N 106-06W 1248M
Apr 14, 2021 - 02:58 PM EDT / 2021.04.14 1858 UTC
Wind: from the SE (140 degrees) at 15 MPH (13 KT) gusting to 23 MPH (20 KT):0
Visibility: 10 mile(s):0
Sky conditions: clear
Temperature: 74.5 F (23.6 C)
Dew Point: 32.0 F (0.0 C)
Relative Humidity: 20%
Pressure (altimeter): 30 in. Hg (1015 hPa)
ob: KHMN 141858Z AUTO 14013G20KT 10SM CLR 24/00 A3000 RMK AO2 SLP101 T02360000
cycle: 19

Station Type Date Time Source
KHMN TAF 2021/04/14 17:06 UTC NOAA

TAF TAF KHMN 141700Z 1417/1523 17012G18KT 9999 SCT210 QNH2989INS
BECMG 1417/1418 21015G25KT 9999 SCT210 QNH2989INS
TEMPO 1420/1501 23020G30KT 9000 BLDU 510003
BECMG 1500/1501 21010G15KT 9999 BKN210 QNH2990INS
BECMG 1502/1503 VRB06KT 9999 FEW180 BKN210 QNH2991INS
BECMG 1506/1507 19012KT 9999 SCT150 BKN180 QNH2993INS
BECMG 1509/1510 19012KT 9999 SCT080 BKN120 QNH2993INS
TEMPO 1510/1514 19012G20KT -SHRA BKN100 OVC110
BECMG 1514/1515 19012KT 9999 SCT100 BKN150 QNH2979INS
BECMG 1520/1521 20015G25KT 9999 SCT210 QNH2977INS TX27/1422Z TN11/1512Z

Example: see airport list